Time;durP1;ratioP1;P1;durP2;ratioP2;P2;SDS_P1;SDS_P2;PMS_P1;PMS_P2;Temp;Humidity;BMP_temperature;BMP_pressure;BME280_temperature;BME280_humidity;BME280_pressure;Samples;Min_cycle;Max_cycle;Signal;HPM_P1;HPM_P2
2022/08/17 00:01:31;;;;;;;;;;;;;;;22.39;60.40;99097.25;4491311;31;20420;-89
2022/08/17 00:03:56;;;;;;;;;;;;;;;22.52;60.41;99093.34;4492294;31;25946;-89
2022/08/17 00:06:23;;;;;;;;;;;;;;;22.23;60.40;99092.47;4509894;31;20284;-88
2022/08/17 00:08:49;;;;;;;;;;;;;;;22.30;60.40;99094.47;4510432;31;19994;-89
2022/08/17 00:11:19;;;;;;;;;;;;;;;22.25;60.40;99096.69;4500406;31;20012;-89
2022/08/17 00:13:48;;;;;;;;;;;;;;;22.35;60.41;99092.22;4500139;31;19988;-89
2022/08/17 00:16:15;;;;;;;;;;;;;;;22.44;60.41;99095.00;4500223;31;20015;-88
2022/08/17 00:18:40;;;;;;;;;;;;;;;22.45;60.41;99094.84;4500368;31;20063;-89
2022/08/17 00:21:06;;;;;;;;;;;;;;;22.33;60.40;99091.53;4517184;31;23507;-89
2022/08/17 00:23:31;;;;;;;;;;;;;;;22.51;60.41;99088.19;4517565;31;20017;-89
2022/08/17 00:25:56;;;;;;;;;;;;;;;22.28;60.40;99090.28;4501561;31;19972;-89
2022/08/17 00:28:22;;;;;;;;;;;;;;;22.35;60.41;99094.87;4499898;31;22751;-89
2022/08/17 00:30:47;;;;;;;;;;;;;;;22.30;60.39;99096.28;4501939;31;20229;-88
2022/08/17 00:33:14;;;;;;;;;;;;;;;22.46;60.41;99090.41;4509867;31;20333;-88
2022/08/17 00:35:40;;;;;;;;;;;;;;;22.08;60.39;99089.44;4500365;31;20336;-88
2022/08/17 00:38:08;;;;;;;;;;;;;;;21.97;60.39;99095.63;4510941;31;19968;-88
2022/08/17 00:40:34;;;;;;;;;;;;;;;21.99;60.38;99095.50;4500093;31;19976;-88
2022/08/17 00:43:06;;;;;;;;;;;;;;;22.12;60.39;99101.41;4499870;31;19976;-89
2022/08/17 00:45:31;;;;;;;;;;;;;;;22.09;60.39;99095.56;4499561;31;20008;-87
2022/08/17 00:47:56;;;;;;;;;;;;;;;22.13;60.39;99097.78;4499715;31;19982;-88
2022/08/17 00:50:21;;;;;;;;;;;;;;;22.21;60.40;99095.28;4499291;31;22444;-88
2022/08/17 00:52:50;;;;;;;;;;;;;;;22.13;60.39;99100.44;4499235;31;20752;-92
2022/08/17 00:55:15;;;;;;;;;;;;;;;22.01;60.38;99097.06;4501873;31;20049;-88
2022/08/17 00:57:42;;;;;;;;;;;;;;;22.09;60.38;99099.06;4509177;31;33598;-88
2022/08/17 01:00:20;;;;;;;;;;;;;;;22.02;60.38;99095.25;4484224;32;19990;-89
2022/08/17 01:02:45;;;;;;;;;;;;;;;22.00;60.38;99097.19;4490266;31;20009;-88
2022/08/17 01:05:15;;;;;;;;;;;;;;;21.94;60.37;99100.38;4499861;31;20027;-89
2022/08/17 01:07:40;;;;;;;;;;;;;;;22.04;60.38;99094.16;4500024;31;20002;-89
2022/08/17 01:10:06;;;;;;;;;;;;;;;22.43;60.41;99098.62;4499840;31;20015;-89
2022/08/17 01:12:32;;;;;;;;;;;;;;;22.12;60.39;99100.59;4499160;31;19988;-91
2022/08/17 01:14:58;;;;;;;;;;;;;;;22.00;60.38;99107.78;4499947;31;20558;-90
2022/08/17 01:17:23;;;;;;;;;;;;;;;21.98;60.38;99107.06;4496754;31;19991;-91
2022/08/17 01:19:48;;;;;;;;;;;;;;;22.05;60.38;99113.56;4491841;31;20348;-89
2022/08/17 01:22:15;;;;;;;;;;;;;;;21.96;60.38;99115.16;4501120;31;19998;-91
2022/08/17 01:24:41;;;;;;;;;;;;;;;21.99;60.38;99109.59;4517254;31;20031;-90
2022/08/17 01:27:07;;;;;;;;;;;;;;;22.00;60.37;99118.38;4503514;31;19960;-89
2022/08/17 01:29:32;;;;;;;;;;;;;;;21.96;60.39;99115.16;4503517;31;19984;-88
2022/08/17 01:31:58;;;;;;;;;;;;;;;21.87;60.38;99115.16;4503481;31;20028;-89
2022/08/17 01:34:24;;;;;;;;;;;;;;;21.97;60.38;99110.69;4503506;31;20413;-88
2022/08/17 01:36:49;;;;;;;;;;;;;;;21.95;60.38;99116.13;4518182;31;19976;-88
2022/08/17 01:39:20;;;;;;;;;;;;;;;21.89;60.38;99114.03;4516662;31;19971;-88
2022/08/17 01:41:46;;;;;;;;;;;;;;;21.83;60.37;99116.41;4516813;31;19997;-88
2022/08/17 01:44:11;;;;;;;;;;;;;;;21.88;60.38;99120.31;4516533;31;19996;-91
2022/08/17 01:46:37;;;;;;;;;;;;;;;21.94;60.38;99118.94;4503592;31;19971;-91
2022/08/17 01:49:06;;;;;;;;;;;;;;;21.95;60.38;99120.59;4518663;31;20035;-91
2022/08/17 01:51:31;;;;;;;;;;;;;;;21.98;60.37;99115.88;4517573;31;20060;-91
2022/08/17 01:53:57;;;;;;;;;;;;;;;21.98;60.38;99117.69;4518890;31;19975;-91
2022/08/17 01:56:22;;;;;;;;;;;;;;;21.89;60.38;99115.84;4522503;31;19962;-91
2022/08/17 01:58:48;;;;;;;;;;;;;;;21.79;60.36;99120.31;4519257;31;19979;-91
2022/08/17 02:01:15;;;;;;;;;;;;;;;21.85;60.37;99119.75;4532869;31;19970;-91
2022/08/17 02:03:40;;;;;;;;;;;;;;;21.80;60.37;99119.34;4513554;31;20336;-91
2022/08/17 02:06:06;;;;;;;;;;;;;;;21.78;60.37;99118.63;4520491;31;19990;-94
2022/08/17 02:08:34;;;;;;;;;;;;;;;21.72;60.37;99120.81;4505634;31;20288;-90
2022/08/17 02:10:59;;;;;;;;;;;;;;;21.63;60.37;99116.34;4503618;31;20280;-90
2022/08/17 02:13:28;;;;;;;;;;;;;;;21.82;60.38;99117.37;4516278;31;19984;-93
2022/08/17 02:15:53;;;;;;;;;;;;;;;21.89;60.38;99113.22;4516308;31;19994;-90
2022/08/17 02:18:19;;;;;;;;;;;;;;;21.95;60.38;99110.00;4516289;31;19980;-92
2022/08/17 02:20:44;;;;;;;;;;;;;;;21.80;60.37;99108.72;4515790;31;32548;-92
2022/08/17 02:23:09;;;;;;;;;;;;;;;21.54;60.35;99106.56;4504340;31;20393;-92
2022/08/17 02:25:35;;;;;;;;;;;;;;;21.50;60.36;99102.50;4518692;31;19991;-92
2022/08/17 02:28:00;;;;;;;;;;;;;;;21.62;60.37;99109.37;4505237;31;19998;-91
2022/08/17 02:30:26;;;;;;;;;;;;;;;21.68;60.36;99111.47;4518727;31;20241;-92
2022/08/17 02:32:52;;;;;;;;;;;;;;;21.78;60.37;99100.09;4518720;31;19992;-92
2022/08/17 02:35:17;;;;;;;;;;;;;;;21.70;60.38;99114.81;4518533;31;19991;-91
2022/08/17 02:37:42;;;;;;;;;;;;;;;21.68;60.37;99113.28;4504943;31;19975;-90
2022/08/17 02:40:08;;;;;;;;;;;;;;;21.59;60.36;99114.09;4504527;31;22543;-91
2022/08/17 02:42:39;;;;;;;;;;;;;;;21.44;60.35;99118.91;4518139;31;20324;-88
2022/08/17 02:45:05;;;;;;;;;;;;;;;21.40;60.36;99114.88;4519307;31;19984;-89
2022/08/17 02:47:30;;;;;;;;;;;;;;;21.45;60.35;99120.59;4517995;31;19971;-89
2022/08/17 02:49:56;;;;;;;;;;;;;;;21.33;60.35;99116.37;4518009;31;20043;-89
2022/08/17 02:52:21;;;;;;;;;;;;;;;21.35;60.35;99117.06;4504601;31;20007;-89
2022/08/17 02:54:46;;;;;;;;;;;;;;;21.33;60.36;99106.63;4517745;31;19972;-89
2022/08/17 02:57:12;;;;;;;;;;;;;;;21.32;60.34;99117.34;4518809;31;19971;-92
2022/08/17 02:59:40;;;;;;;;;;;;;;;21.40;60.35;99110.41;4519237;31;19992;-91
2022/08/17 03:02:05;;;;;;;;;;;;;;;21.26;60.34;99112.56;4519105;31;20051;-92
2022/08/17 03:04:31;;;;;;;;;;;;;;;21.16;60.33;99120.44;4505005;31;20383;-92
2022/08/17 03:06:56;;;;;;;;;;;;;;;21.35;60.35;99117.06;4504665;31;25815;-91
2022/08/17 03:09:21;;;;;;;;;;;;;;;21.27;60.35;99119.53;4504770;31;19996;-92
2022/08/17 03:11:46;;;;;;;;;;;;;;;21.32;60.34;99122.63;4518216;31;20312;-92
2022/08/17 03:14:11;;;;;;;;;;;;;;;21.45;60.35;99120.59;4506329;31;19976;-90
2022/08/17 03:16:37;;;;;;;;;;;;;;;21.42;60.35;99118.22;4518585;31;19982;-91
2022/08/17 03:19:02;;;;;;;;;;;;;;;21.35;60.35;99115.28;4519234;31;19975;-90
2022/08/17 03:21:27;;;;;;;;;;;;;;;21.30;60.34;99121.94;4505655;31;20856;-90
2022/08/17 03:23:52;;;;;;;;;;;;;;;21.32;60.34;99123.47;4519866;31;20020;-88
2022/08/17 03:26:18;;;;;;;;;;;;;;;21.28;60.34;99123.84;4504775;31;19983;-89
2022/08/17 03:28:43;;;;;;;;;;;;;;;21.34;60.35;99131.28;4504626;31;19988;-90
2022/08/17 03:31:08;;;;;;;;;;;;;;;21.14;60.33;99128.50;4504526;31;20350;-90
2022/08/17 03:33:33;;;;;;;;;;;;;;;21.26;60.35;99121.34;4503865;31;24021;-90
2022/08/17 03:35:59;;;;;;;;;;;;;;;21.10;60.34;99119.16;4504084;31;19972;-90
2022/08/17 03:38:24;;;;;;;;;;;;;;;20.98;60.33;99129.94;4518030;31;20071;-90
2022/08/17 03:40:49;;;;;;;;;;;;;;;21.03;60.33;99131.22;4517827;31;19987;-91
2022/08/17 03:43:15;;;;;;;;;;;;;;;21.11;60.34;99128.78;4517775;31;19990;-91
2022/08/17 03:56:44;;;;;;;;;;;;;;;21.07;60.33;99135.28;4518314;31;19979;-91
2022/08/17 03:59:09;;;;;;;;;;;;;;;20.98;60.33;99141.34;4505089;31;20055;-90
2022/08/17 04:01:34;;;;;;;;;;;;;;;21.02;60.33;99136.62;4517334;31;20317;-88
2022/08/17 04:04:00;;;;;;;;;;;;;;;21.06;60.32;99138.06;4516890;31;23946;-88
2022/08/17 04:06:25;;;;;;;;;;;;;;;21.02;60.33;99144.56;4517131;31;22918;-89
2022/08/17 04:08:50;;;;;;;;;;;;;;;21.19;60.34;99138.69;4517212;31;20012;-89
2022/08/17 04:11:15;;;;;;;;;;;;;;;21.08;60.33;99144.91;4504036;31;20010;-87
2022/08/17 04:13:41;;;;;;;;;;;;;;;21.25;60.35;99138.19;4518434;31;20357;-88
2022/08/17 04:16:06;;;;;;;;;;;;;;;21.28;60.34;99148.50;4504333;31;20035;-89
2022/08/17 04:18:31;;;;;;;;;;;;;;;21.39;60.34;99142.31;4503646;31;22905;-90
2022/08/17 04:20:57;;;;;;;;;;;;;;;21.35;60.35;99148.84;4517301;31;20082;-90
2022/08/17 04:23:22;;;;;;;;;;;;;;;21.30;60.34;99148.41;4516717;31;19972;-87
2022/08/17 04:25:48;;;;;;;;;;;;;;;21.58;60.36;99152.16;4517847;31;30067;-87
2022/08/17 04:28:14;;;;;;;;;;;;;;;21.70;60.36;99145.78;4517257;31;19983;-85
2022/08/17 04:30:39;;;;;;;;;;;;;;;21.76;60.36;99146.06;4516986;31;20028;-85
2022/08/17 04:33:07;;;;;;;;;;;;;;;21.56;60.36;99151.47;4518460;31;19984;-86
2022/08/17 04:35:34;;;;;;;;;;;;;;;21.66;60.36;99147.03;4517082;31;20260;-86
2022/08/17 04:37:59;;;;;;;;;;;;;;;21.76;60.37;99151.38;4503855;31;20035;-86
2022/08/17 04:43:13;;;;;;;;;;;;;;;21.61;60.35;99157.19;4518573;31;19990;-89
2022/08/17 04:45:39;;;;;;;;;;;;;;;21.73;60.37;99154.28;4517936;31;19984;-89
2022/08/17 04:48:04;;;;;;;;;;;;;;;22.09;60.38;99157.38;4518424;31;20336;-88
2022/08/17 04:50:29;;;;;;;;;;;;;;;22.27;60.40;99154.87;4516219;31;37878;-89
2022/08/17 04:52:55;;;;;;;;;;;;;;;22.44;60.40;99153.34;4516494;31;22955;-89
2022/08/17 04:55:20;;;;;;;;;;;;;;;22.55;60.40;99154.06;4516990;31;19971;-89
2022/08/17 04:57:45;;;;;;;;;;;;;;;22.63;60.42;99154.19;4517003;31;20374;-89
2022/08/17 05:00:12;;;;;;;;;;;;;;;22.69;60.41;99152.78;4517789;31;20245;-89
2022/08/17 05:02:44;;;;;;;;;;;;;;;22.86;60.42;99159.25;4517635;31;19994;-89
2022/08/17 05:05:09;;;;;;;;;;;;;;;22.76;60.42;99156.56;4517110;31;19976;-89
2022/08/17 05:07:34;;;;;;;;;;;;;;;22.74;60.42;99169.16;4517907;31;20244;-89
2022/08/17 05:10:00;;;;;;;;;;;;;;;22.93;60.43;99173.62;4516454;31;21010;-89
2022/08/17 05:12:25;;;;;;;;;;;;;;;22.95;60.42;99177.00;4516908;31;19980;-88
2022/08/17 05:14:50;;;;;;;;;;;;;;;23.45;60.46;99171.44;4516243;31;20264;-89
2022/08/17 05:17:15;;;;;;;;;;;;;;;23.27;60.44;99174.00;4503789;31;19991;-89
2022/08/17 05:19:41;;;;;;;;;;;;;;;23.19;60.45;99176.53;4517037;31;20036;-89
2022/08/17 05:22:06;;;;;;;;;;;;;;;23.31;60.45;99170.06;4517187;31;20334;-89
2022/08/17 05:24:32;;;;;;;;;;;;;;;23.55;60.46;99172.22;4517005;31;19991;-89
2022/08/17 05:26:58;;;;;;;;;;;;;;;23.64;60.46;99167.88;4517579;31;19980;-89
2022/08/17 05:29:23;;;;;;;;;;;;;;;23.85;60.47;99171.97;4503707;31;24007;-89
2022/08/17 05:31:48;;;;;;;;;;;;;;;24.15;60.50;99175.34;4519710;31;36487;-89
2022/08/17 05:34:13;;;;;;;;;;;;;;;24.29;60.50;99171.34;4532772;31;19980;-89
2022/08/17 05:36:39;;;;;;;;;;;;;;;24.37;60.50;99168.75;4532319;31;21758;-89
2022/08/17 05:39:05;;;;;;;;;;;;;;;24.52;60.51;99172.56;4526652;31;19991;-89
2022/08/17 05:41:30;;;;;;;;;;;;;;;24.55;60.51;99164.28;4517772;31;19986;-89
2022/08/17 05:43:55;;;;;;;;;;;;;;;24.67;60.51;99172.88;4516605;31;22252;-89
2022/08/17 05:46:22;;;;;;;;;;;;;;;24.76;60.53;99174.62;4517484;31;20399;-89
2022/08/17 05:48:51;;;;;;;;;;;;;;;24.69;60.52;99169.06;4503264;31;20047;-89
2022/08/17 05:51:26;;;;;;;;;;;;;;;25.01;60.53;99184.50;4516566;31;20039;-89
2022/08/17 05:53:57;;;;;;;;;;;;;;;25.11;60.54;99176.44;4516387;31;20027;-89
2022/08/17 05:56:45;;;;;;;;;;;;;;;25.18;60.54;99173.97;4516660;31;19987;-89
2022/08/17 05:59:16;;;;;;;;;;;;;;;25.44;60.55;99173.97;4487352;31;20361;-89
2022/08/17 06:01:47;;;;;;;;;;;;;;;25.33;60.55;99172.44;4516514;31;19964;-89
2022/08/17 06:04:21;;;;;;;;;;;;;;;25.66;60.56;99163.59;4503066;31;20079;-89
2022/08/17 06:06:51;;;;;;;;;;;;;;;25.89;60.58;99168.41;4503028;31;20055;-89
2022/08/17 06:09:19;;;;;;;;;;;;;;;25.82;60.57;99167.38;4516513;31;20139;-89
2022/08/17 06:12:04;;;;;;;;;;;;;;;26.19;60.60;99172.31;4516538;31;19994;-89
2022/08/17 06:14:35;;;;;;;;;;;;;;;26.30;60.60;99167.53;4516516;31;19991;-89
2022/08/17 06:17:05;;;;;;;;;;;;;;;26.27;60.60;99167.03;4517618;31;19987;-89
2022/08/17 06:19:44;;;;;;;;;;;;;;;26.34;60.60;99168.06;4503023;31;20374;-89
2022/08/17 06:22:11;;;;;;;;;;;;;;;26.49;60.61;99165.56;4502826;31;19976;-89
2022/08/17 06:24:40;;;;;;;;;;;;;;;26.61;60.61;99164.28;4502822;31;20412;-90
2022/08/17 06:27:26;;;;;;;;;;;;;;;26.88;60.63;99171.13;4517329;31;20007;-89
2022/08/17 06:30:08;;;;;;;;;;;;;;;26.99;60.63;99168.16;4516735;31;20040;-90
2022/08/17 06:32:34;;;;;;;;;;;;;;;27.20;60.65;99171.13;4502720;31;19994;-89
2022/08/17 06:35:00;;;;;;;;;;;;;;;27.27;60.65;99159.78;4502659;31;19990;-89
2022/08/17 06:37:25;;;;;;;;;;;;;;;27.44;60.66;99172.06;4516003;31;19979;-89
2022/08/17 06:39:56;;;;;;;;;;;;;;;27.54;60.67;99172.72;4517193;31;20007;-89
2022/08/17 06:42:25;;;;;;;;;;;;;;;27.72;60.67;99175.22;4517175;31;19963;-89
2022/08/17 06:45:01;;;;;;;;;;;;;;;27.93;60.69;99177.31;4502400;31;20051;-89
2022/08/17 06:47:28;;;;;;;;;;;;;;;28.13;60.70;99184.72;4502668;31;20355;-89
2022/08/17 06:50:14;;;;;;;;;;;;;;;28.49;60.71;99178.03;4502523;31;19983;-90
2022/08/17 06:52:44;;;;;;;;;;;;;;;28.68;60.72;99178.41;4517378;31;19968;-89
2022/08/17 06:55:20;;;;;;;;;;;;;;;28.73;60.72;99186.72;4515976;31;19976;-89
2022/08/17 06:57:47;;;;;;;;;;;;;;;28.99;60.73;99180.19;4502671;31;19984;-89
2022/08/17 07:00:13;;;;;;;;;;;;;;;29.19;60.75;99177.84;4502383;31;20367;-89
2022/08/17 07:02:45;;;;;;;;;;;;;;;29.34;60.76;99178.69;4502287;31;20359;-89
2022/08/17 07:05:11;;;;;;;;;;;;;;;29.56;60.76;99182.31;4516667;31;19991;-87
2022/08/17 07:10:21;;;;;;;;;;;;;;;29.76;60.78;99178.06;4517356;31;20024;-87
2022/08/17 07:12:46;;;;;;;;;;;;;;;29.77;60.78;99176.22;4517811;31;20027;-87
2022/08/17 07:15:13;;;;;;;;;;;;;;;29.74;60.78;99176.59;4519037;31;19983;-87
2022/08/17 07:17:39;;;;;;;;;;;;;;;29.97;60.79;99180.00;4504558;31;19983;-87
2022/08/17 07:20:08;;;;;;;;;;;;;;;30.15;60.80;99177.78;4517862;31;20010;-87
2022/08/17 07:22:40;;;;;;;;;;;;;;;30.16;60.80;99171.38;4517909;31;19990;-87
2022/08/17 07:25:09;;;;;;;;;;;;;;;30.37;60.81;99170.59;4519038;31;19963;-87
2022/08/17 07:27:35;;;;;;;;;;;;;;;30.50;60.81;99173.41;4504574;31;19999;-88
2022/08/17 07:30:04;;;;;;;;;;;;;;;30.60;60.83;99173.09;4519121;31;20348;-86
2022/08/17 07:32:31;;;;;;;;;;;;;;;30.53;60.82;99170.37;4519150;31;20031;-88
2022/08/17 07:35:07;;;;;;;;;;;;;;;30.42;60.82;99172.72;4518037;31;20308;-88
2022/08/17 07:37:35;;;;;;;;;;;;;;;30.52;60.82;99179.44;4504542;31;20361;-87
2022/08/17 07:40:06;;;;;;;;;;;;;;;30.75;60.82;99170.37;4517893;31;20409;-88
2022/08/17 07:42:31;;;;;;;;;;;;;;;30.68;60.83;99170.31;4504290;31;19987;-88
2022/08/17 07:44:56;;;;;;;;;;;;;;;30.89;60.83;99166.78;4503594;31;29051;-87
2022/08/17 07:50:25;;;;;;;;;;;;;;;31.06;60.84;99165.50;4517942;31;19998;-89
2022/08/17 07:52:50;;;;;;;;;;;;;;;31.14;60.84;99170.72;4504219;31;19995;-88
2022/08/17 07:55:26;;;;;;;;;;;;;;;31.37;60.86;99169.66;4503494;31;38668;-88
2022/08/17 07:57:56;;;;;;;;;;;;;;;31.44;60.87;99165.97;4503727;31;20005;-88
2022/08/17 08:00:23;;;;;;;;;;;;;;;31.39;60.87;99165.75;4517661;31;19991;-88
2022/08/17 08:02:58;;;;;;;;;;;;;;;31.58;60.87;99171.44;4504383;31;19983;-88
2022/08/17 08:05:24;;;;;;;;;;;;;;;31.73;60.88;99173.03;4504403;31;19976;-87
2022/08/17 08:07:49;;;;;;;;;;;;;;;31.82;60.89;99172.84;4504228;31;19992;-86
2022/08/17 08:10:15;;;;;;;;;;;;;;;31.91;60.89;99169.78;4518767;31;19971;-87
2022/08/17 08:12:41;;;;;;;;;;;;;;;31.94;60.89;99165.84;4517430;31;19990;-87
2022/08/17 08:15:17;;;;;;;;;;;;;;;31.96;60.90;99158.44;4517432;31;20029;-87
2022/08/17 08:17:50;;;;;;;;;;;;;;;32.08;60.90;99167.59;4504244;31;20409;-86
2022/08/17 08:20:15;;;;;;;;;;;;;;;32.16;60.90;99163.88;4517419;31;20000;-86
2022/08/17 08:23:01;;;;;;;;;;;;;;;32.19;60.90;99160.81;4517323;31;20274;-86
2022/08/17 08:25:45;;;;;;;;;;;;;;;32.15;60.90;99164.91;4517593;31;19976;-86
2022/08/17 08:28:29;;;;;;;;;;;;;;;32.25;60.90;99165.38;4519012;31;19980;-85
2022/08/17 08:31:05;;;;;;;;;;;;;;;32.43;60.91;99167.53;4518662;31;19999;-86
2022/08/17 08:33:33;;;;;;;;;;;;;;;32.58;60.92;99165.47;4504006;31;20350;-86
2022/08/17 08:36:02;;;;;;;;;;;;;;;32.66;60.92;99163.41;4517312;31;20335;-86
2022/08/17 08:38:29;;;;;;;;;;;;;;;32.82;60.93;99164.06;4518692;31;19987;-85
2022/08/17 08:41:16;;;;;;;;;;;;;;;33.03;60.95;99165.72;4517337;31;19996;-86
2022/08/17 08:43:48;;;;;;;;;;;;;;;33.12;60.95;99162.59;4517253;31;20322;-86
2022/08/17 08:46:23;;;;;;;;;;;;;;;33.32;60.96;99162.63;4517099;31;20002;-86
2022/08/17 08:49:00;;;;;;;;;;;;;;;33.44;60.96;99152.03;4517320;31;19987;-87
2022/08/17 08:51:29;;;;;;;;;;;;;;;33.71;60.99;99159.00;4518604;31;19988;-89
2022/08/17 08:53:57;;;;;;;;;;;;;;;33.65;60.98;99167.12;4518403;31;19980;-86
2022/08/17 08:56:41;;;;;;;;;;;;;;;33.53;60.97;99161.53;4518584;31;20009;-89
2022/08/17 08:59:06;;;;;;;;;;;;;;;33.62;60.98;99154.06;4518754;31;20342;-86
2022/08/17 09:01:36;;;;;;;;;;;;;;;33.81;60.99;99155.84;4518587;31;20011;-87
2022/08/17 09:04:21;;;;;;;;;;;;;;;34.09;61.00;99155.56;4503942;31;20600;-87
2022/08/17 09:06:59;;;;;;;;;;;;;;;33.99;60.99;99169.53;4517202;31;20032;-87
2022/08/17 09:09:39;;;;;;;;;;;;;;;34.03;60.99;99156.41;4517213;31;19983;-90
2022/08/17 09:12:09;;;;;;;;;;;;;;;34.00;61.00;99162.25;4518633;31;19995;-89
2022/08/17 09:14:38;;;;;;;;;;;;;;;34.16;61.00;99170.69;4517109;31;20022;-87
2022/08/17 09:17:18;;;;;;;;;;;;;;;34.26;61.01;99158.59;4503931;31;19952;-86
2022/08/17 09:19:51;;;;;;;;;;;;;;;34.43;61.01;99154.37;4503911;31;20002;-87
2022/08/17 09:22:36;;;;;;;;;;;;;;;34.53;61.01;99164.69;4517644;31;19995;-90
2022/08/17 09:25:02;;;;;;;;;;;;;;;34.72;61.03;99161.03;4518565;31;19968;-87
2022/08/17 09:27:31;;;;;;;;;;;;;;;34.66;61.02;99161.91;4517969;31;19976;-89
2022/08/17 09:30:01;;;;;;;;;;;;;;;34.88;61.04;99157.81;4508015;31;19960;-87
2022/08/17 09:32:36;;;;;;;;;;;;;;;34.91;61.03;99162.78;4528746;31;19978;-86
2022/08/17 09:35:13;;;;;;;;;;;;;;;35.03;61.04;99158.31;4529471;31;20002;-87
2022/08/17 09:37:44;;;;;;;;;;;;;;;35.09;61.06;99159.31;4524617;31;19984;-89
2022/08/17 09:40:13;;;;;;;;;;;;;;;35.16;61.05;99161.94;4517543;31;20016;-87
2022/08/17 09:42:46;;;;;;;;;;;;;;;35.22;61.06;99164.56;4517563;31;19988;-87
2022/08/17 09:45:20;;;;;;;;;;;;;;;35.14;61.05;99154.06;4516816;31;19972;-90
2022/08/17 09:47:50;;;;;;;;;;;;;;;35.28;61.07;99149.34;4517897;31;20012;-87
2022/08/17 09:50:23;;;;;;;;;;;;;;;35.47;61.07;99145.63;4516821;31;19984;-88
2022/08/17 09:52:55;;;;;;;;;;;;;;;35.49;61.07;99143.56;4516635;31;20014;-88
2022/08/17 09:55:21;;;;;;;;;;;;;;;35.50;61.08;99152.50;4516408;31;20431;-88
2022/08/17 09:57:52;;;;;;;;;;;;;;;35.51;61.08;99146.03;4503409;31;19991;-87
2022/08/17 10:00:23;;;;;;;;;;;;;;;35.40;61.07;99153.00;4516666;31;20356;-87
2022/08/17 10:03:08;;;;;;;;;;;;;;;35.38;61.06;99145.09;4516486;31;20005;-88
2022/08/17 10:05:45;;;;;;;;;;;;;;;35.62;61.07;99146.09;4518015;31;19986;-87
2022/08/17 10:08:21;;;;;;;;;;;;;;;36.02;61.10;99134.81;4503158;31;20400;-87
2022/08/17 10:10:49;;;;;;;;;;;;;;;36.17;61.11;99151.47;4517681;31;19990;-88
2022/08/17 10:13:17;;;;;;;;;;;;;;;36.14;61.11;99146.50;4517541;31;19987;-87
2022/08/17 10:15:43;;;;;;;;;;;;;;;36.28;61.11;99141.75;4516258;31;19983;-87
2022/08/17 10:18:17;;;;;;;;;;;;;;;36.42;61.12;99147.81;4516174;31;20006;-87
2022/08/17 10:20:42;;;;;;;;;;;;;;;36.51;61.12;99146.44;4517930;31;20028;-88
2022/08/17 10:26:13;;;;;;;;;;;;;;;36.84;61.13;99135.91;4516532;31;20255;-87
2022/08/17 10:28:45;;;;;;;;;;;;;;;37.07;61.15;99147.84;4516287;31;19976;-88
2022/08/17 10:31:11;;;;;;;;;;;;;;;36.80;61.14;99139.34;4516136;31;20027;-87
2022/08/17 10:33:56;;;;;;;;;;;;;;;36.77;61.13;99134.34;4516108;31;20006;-87
2022/08/17 10:36:26;;;;;;;;;;;;;;;36.79;61.14;99135.81;4517230;31;20043;-88
2022/08/17 10:39:14;;;;;;;;;;;;;;;36.85;61.13;99129.44;4516167;31;19971;-88
2022/08/17 10:41:40;;;;;;;;;;;;;;;36.75;61.13;99136.47;4515986;31;20045;-87
2022/08/17 10:44:10;;;;;;;;;;;;;;;36.43;61.12;99138.63;4516139;31;20097;-87
2022/08/17 10:46:39;;;;;;;;;;;;;;;36.49;61.12;99141.25;4518047;31;19971;-87
2022/08/17 10:49:16;;;;;;;;;;;;;;;36.74;61.14;99135.66;4518119;31;19971;-87
2022/08/17 10:51:42;;;;;;;;;;;;;;;36.87;61.15;99132.72;4519560;31;20002;-87
2022/08/17 10:54:33;;;;;;;;;;;;;;;36.92;61.14;99137.47;4504792;31;19996;-87
2022/08/17 10:56:58;;;;;;;;;;;;;;;37.21;61.16;99138.44;4487638;31;19976;-87
2022/08/17 10:59:33;;;;;;;;;;;;;;;37.40;61.17;99117.44;4503505;31;37705;-87
2022/08/17 11:02:11;;;;;;;;;;;;;;;37.32;61.16;99120.50;4517766;31;19970;-88
2022/08/17 11:04:44;;;;;;;;;;;;;;;37.41;61.17;99125.34;4504492;31;20268;-88
2022/08/17 11:07:16;;;;;;;;;;;;;;;36.91;61.14;99124.13;4504531;31;19976;-87
2022/08/17 11:09:54;;;;;;;;;;;;;;;36.75;61.14;99123.75;4504701;31;20308;-88
2022/08/17 11:12:19;;;;;;;;;;;;;;;36.66;61.13;99127.84;4517895;31;20365;-88
2022/08/17 11:14:50;;;;;;;;;;;;;;;36.26;61.11;99131.13;4519114;31;19987;-87
2022/08/17 11:17:34;;;;;;;;;;;;;;;36.23;61.12;99134.31;4519269;31;19985;-87
2022/08/17 11:20:17;;;;;;;;;;;;;;;36.31;61.12;99129.66;4519498;31;19983;-87
2022/08/17 11:22:56;;;;;;;;;;;;;;;36.48;61.13;99134.19;4519687;31;19998;-88
2022/08/17 11:25:30;;;;;;;;;;;;;;;36.48;61.13;99123.34;4505426;31;19983;-88
2022/08/17 11:28:03;;;;;;;;;;;;;;;36.47;61.13;99120.88;4518497;31;19968;-88
2022/08/17 11:30:47;;;;;;;;;;;;;;;36.46;61.13;99113.78;4518461;31;20039;-89
2022/08/17 11:33:27;;;;;;;;;;;;;;;36.27;61.11;99113.00;4519450;31;20115;-89
2022/08/17 11:35:54;;;;;;;;;;;;;;;36.16;61.11;99102.91;4518155;31;20059;-88
2022/08/17 11:38:24;;;;;;;;;;;;;;;36.34;61.12;99102.91;4517843;31;19976;-88
2022/08/17 11:41:08;;;;;;;;;;;;;;;36.62;61.14;99104.97;4517828;31;19996;-88
2022/08/17 11:43:42;;;;;;;;;;;;;;;36.60;61.13;99096.22;4517764;31;20460;-88
2022/08/17 11:46:16;;;;;;;;;;;;;;;36.88;61.15;99106.44;4517749;31;19999;-87
2022/08/17 11:51:45;;;;;;;;;;;;;;;36.56;61.13;99103.19;4519023;31;19994;-88
2022/08/17 11:54:31;;;;;;;;;;;;;;;36.66;61.13;99098.00;4517692;31;19992;-88
2022/08/17 11:57:01;;;;;;;;;;;;;;;37.05;61.15;99090.28;4517322;31;20050;-89
2022/08/17 11:59:32;;;;;;;;;;;;;;;37.19;61.16;99080.84;4517923;31;19979;-88
2022/08/17 12:01:57;;;;;;;;;;;;;;;37.01;61.15;99092.66;4517612;31;19987;-88
2022/08/17 12:04:24;;;;;;;;;;;;;;;37.10;61.16;99095.81;4504228;31;19984;-89
2022/08/17 12:07:22;;;;;;;;;;;;;;;36.99;61.15;99097.50;4517762;31;20059;-89
2022/08/17 12:09:48;;;;;;;;;;;;;;;37.01;61.15;99087.22;4483247;31;19976;-88
2022/08/17 12:12:15;;;;;;;;;;;;;;;37.00;61.15;99084.75;4504175;31;20003;-89
2022/08/17 12:14:44;;;;;;;;;;;;;;;37.24;61.16;99080.13;4504247;31;20036;-88
2022/08/17 12:17:13;;;;;;;;;;;;;;;37.37;61.17;99075.28;4517639;31;19988;-88
2022/08/17 12:19:39;;;;;;;;;;;;;;;37.53;61.18;99072.88;4518877;31;20043;-89
2022/08/17 12:22:04;;;;;;;;;;;;;;;37.69;61.19;99064.00;4518654;31;20326;-89
2022/08/17 12:24:32;;;;;;;;;;;;;;;37.85;61.19;99055.09;4518658;31;19987;-89
2022/08/17 12:26:58;;;;;;;;;;;;;;;38.04;61.19;99056.53;4517502;31;20071;-89
2022/08/17 12:29:24;;;;;;;;;;;;;;;38.24;61.19;99056.09;4504135;31;19994;-89
2022/08/17 12:31:49;;;;;;;;;;;;;;;38.32;61.20;99057.59;4517399;31;20321;-89
2022/08/17 12:34:17;;;;;;;;;;;;;;;38.37;61.21;99055.81;4504005;31;20021;-89
2022/08/17 12:36:42;;;;;;;;;;;;;;;38.62;61.22;99049.97;4517377;31;20002;-89
2022/08/17 12:39:07;;;;;;;;;;;;;;;38.77;61.23;99054.00;4518302;31;20023;-88
2022/08/17 12:41:37;;;;;;;;;;;;;;;38.44;61.21;99061.06;4517391;31;20000;-88
2022/08/17 12:44:04;;;;;;;;;;;;;;;38.19;61.20;99061.47;4517152;31;19992;-89
2022/08/17 12:46:32;;;;;;;;;;;;;;;38.05;61.19;99054.63;4517287;31;20536;-88
2022/08/17 12:49:13;;;;;;;;;;;;;;;38.01;61.20;99056.22;4504356;31;19976;-88
2022/08/17 12:51:45;;;;;;;;;;;;;;;38.32;61.21;99055.69;4504115;31;20014;-89
2022/08/17 12:54:19;;;;;;;;;;;;;;;38.19;61.21;99056.03;4517520;31;20375;-89
2022/08/17 12:56:44;;;;;;;;;;;;;;;38.04;61.20;99061.16;4517496;31;20033;-89
2022/08/17 12:59:10;;;;;;;;;;;;;;;38.15;61.20;99049.41;4504133;31;20006;-89
2022/08/17 13:01:37;;;;;;;;;;;;;;;38.15;61.20;99054.84;4518202;31;25336;-89
2022/08/17 13:04:05;;;;;;;;;;;;;;;38.29;61.21;99053.47;4517011;31;20351;-88
2022/08/17 13:06:32;;;;;;;;;;;;;;;38.26;61.21;99047.72;4516551;31;20015;-89
2022/08/17 13:09:06;;;;;;;;;;;;;;;38.36;61.21;99051.44;4518306;31;19975;-89
2022/08/17 13:11:32;;;;;;;;;;;;;;;38.23;61.21;99059.06;4517320;31;20020;-88
2022/08/17 13:14:05;;;;;;;;;;;;;;;37.92;61.19;99047.63;4517588;31;26978;-88
2022/08/17 13:16:32;;;;;;;;;;;;;;;37.98;61.19;99043.09;4516844;31;20047;-89
2022/08/17 13:19:14;;;;;;;;;;;;;;;38.19;61.21;99047.06;4517010;31;19986;-89
2022/08/17 13:21:42;;;;;;;;;;;;;;;38.31;61.21;99043.16;4503763;31;20019;-89
2022/08/17 13:24:12;;;;;;;;;;;;;;;38.45;61.22;99037.41;4517070;31;19998;-89